Time;durP1;ratioP1;P1;durP2;ratioP2;P2;SDS_P1;SDS_P2;PMS_P1;PMS_P2;Temp;Humidity;BMP_temperature;BMP_pressure;BME280_temperature;BME280_humidity;BME280_pressure;Samples;Min_cycle;Max_cycle;Signal;HPM_P1;HPM_P2
2023/08/01 00:01:38;;;;;;;11.13;3.05;;;;;;;;;;5025942;28;20017;-73
2023/08/01 00:04:04;;;;;;;6.63;2.92;;;;;;;;;;5022673;28;20037;-72
2023/08/01 00:06:30;;;;;;;10.57;3.25;;;;;;;;;;5026013;28;20494;-73
2023/08/01 00:08:56;;;;;;;10.25;4.00;;;;;;;;;;5024282;28;20025;-72
2023/08/01 00:11:22;;;;;;;7.05;2.80;;;;;;;;;;5019967;28;20387;-73
2023/08/01 00:13:48;;;;;;;8.60;2.65;;;;;;;;;;5026058;28;20037;-73
2023/08/01 00:16:14;;;;;;;7.15;2.65;;;;;;;;;;5025517;28;20041;-72
2023/08/01 00:18:40;;;;;;;10.48;4.00;;;;;;;;;;5021607;28;20057;-73
2023/08/01 00:21:09;;;;;;;6.22;3.00;;;;;;;;;;5023718;28;20072;-72
2023/08/01 00:23:35;;;;;;;8.02;2.63;;;;;;;;;;5024222;28;20022;-72
2023/08/01 00:26:01;;;;;;;9.50;2.70;;;;;;;;;;5027232;28;20037;-72
2023/08/01 00:28:27;;;;;;;9.50;2.75;;;;;;;;;;5025038;28;20521;-73
2023/08/01 00:31:06;;;;;;;5.88;3.00;;;;;;;;;;5023503;28;20041;-73
2023/08/01 00:33:33;;;;;;;9.32;3.30;;;;;;;;;;5022968;28;20394;-73
2023/08/01 00:35:59;;;;;;;8.30;3.17;;;;;;;;;;5022809;28;20037;-72
2023/08/01 00:38:25;;;;;;;8.65;3.72;;;;;;;;;;5025453;28;20048;-72
2023/08/01 00:40:51;;;;;;;5.63;3.03;;;;;;;;;;5024382;28;20026;-72
2023/08/01 00:43:17;;;;;;;9.95;3.28;;;;;;;;;;5025082;28;20109;-73
2023/08/01 00:45:43;;;;;;;7.28;3.40;;;;;;;;;;5022150;28;20033;-72
2023/08/01 00:48:09;;;;;;;7.30;3.25;;;;;;;;;;5025722;28;20383;-72
2023/08/01 00:50:35;;;;;;;8.80;3.33;;;;;;;;;;5021810;28;20530;-72
2023/08/01 00:53:01;;;;;;;9.82;3.55;;;;;;;;;;5020986;28;20046;-72
2023/08/01 00:55:28;;;;;;;8.05;3.45;;;;;;;;;;5025035;28;20060;-72
2023/08/01 00:57:54;;;;;;;10.20;3.05;;;;;;;;;;5028225;28;20034;-72
2023/08/01 01:00:20;;;;;;;8.02;3.63;;;;;;;;;;5021925;28;20113;-72
2023/08/01 01:02:46;;;;;;;16.45;3.42;;;;;;;;;;5021545;28;20033;-72
2023/08/01 01:05:13;;;;;;;8.57;3.35;;;;;;;;;;5022044;28;20088;-72
2023/08/01 01:07:40;;;;;;;6.63;2.90;;;;;;;;;;5026215;28;20041;-73
2023/08/01 01:10:06;;;;;;;9.77;3.55;;;;;;;;;;5022741;28;20049;-72
2023/08/01 01:12:32;;;;;;;10.80;3.17;;;;;;;;;;5025344;28;20076;-72
2023/08/01 01:14:58;;;;;;;10.32;4.00;;;;;;;;;;5022195;28;20037;-72
2023/08/01 01:17:24;;;;;;;12.68;3.40;;;;;;;;;;5027898;28;20037;-72
2023/08/01 01:19:50;;;;;;;8.05;3.28;;;;;;;;;;5028718;28;20045;-72
2023/08/01 01:22:17;;;;;;;14.73;3.30;;;;;;;;;;5026909;28;20069;-72
2023/08/01 01:24:43;;;;;;;8.63;3.65;;;;;;;;;;5027913;28;20072;-72
2023/08/01 01:27:10;;;;;;;6.47;2.72;;;;;;;;;;5013814;28;20371;-72
2023/08/01 01:29:36;;;;;;;8.88;3.78;;;;;;;;;;5011439;28;20045;-72
2023/08/01 01:32:03;;;;;;;10.52;3.25;;;;;;;;;;5030217;28;20487;-72
2023/08/01 01:34:29;;;;;;;9.55;3.78;;;;;;;;;;5027909;28;20073;-72
2023/08/01 01:36:55;;;;;;;6.22;2.55;;;;;;;;;;5029408;28;20030;-72
2023/08/01 01:39:21;;;;;;;16.17;3.88;;;;;;;;;;5028928;28;20060;-72
2023/08/01 01:41:47;;;;;;;11.05;3.58;;;;;;;;;;5027092;28;20042;-72
2023/08/01 01:44:13;;;;;;;8.35;3.55;;;;;;;;;;5030867;28;20037;-72
2023/08/01 01:46:39;;;;;;;8.90;3.65;;;;;;;;;;5025112;28;20037;-72
2023/08/01 01:49:05;;;;;;;9.80;4.30;;;;;;;;;;5026497;28;20029;-72
2023/08/01 01:51:31;;;;;;;7.07;3.50;;;;;;;;;;5027542;28;20059;-72
2023/08/01 01:53:57;;;;;;;12.07;2.92;;;;;;;;;;5024016;28;20037;-72
2023/08/01 01:56:23;;;;;;;13.60;4.20;;;;;;;;;;5028209;28;20041;-72
2023/08/01 01:58:49;;;;;;;9.43;3.60;;;;;;;;;;5025200;28;20084;-72
2023/08/01 02:01:15;;;;;;;12.40;3.70;;;;;;;;;;5027839;28;20486;-72
2023/08/01 02:03:41;;;;;;;8.75;3.53;;;;;;;;;;5028513;28;20033;-72
2023/08/01 02:06:07;;;;;;;11.73;4.13;;;;;;;;;;5024526;28;20034;-72
2023/08/01 02:08:33;;;;;;;13.82;4.05;;;;;;;;;;5025608;28;20029;-72
2023/08/01 02:10:59;;;;;;;10.73;4.25;;;;;;;;;;5027804;28;20021;-72
2023/08/01 02:13:29;;;;;;;12.73;5.68;;;;;;;;;;5023988;28;20571;-72
2023/08/01 02:15:55;;;;;;;16.15;5.40;;;;;;;;;;5027516;28;20029;-73
2023/08/01 02:18:21;;;;;;;13.93;5.18;;;;;;;;;;5020400;28;20034;-74
2023/08/01 02:20:47;;;;;;;18.60;5.70;;;;;;;;;;5028120;28;20060;-73
2023/08/01 02:23:13;;;;;;;18.25;5.88;;;;;;;;;;5025576;28;20452;-73
2023/08/01 02:25:40;;;;;;;15.75;6.10;;;;;;;;;;5017483;28;20061;-74
2023/08/01 02:28:06;;;;;;;18.92;6.32;;;;;;;;;;5021705;28;20038;-75
2023/08/01 02:30:32;;;;;;;16.88;6.53;;;;;;;;;;5022146;28;20017;-75
2023/08/01 02:32:58;;;;;;;19.75;7.63;;;;;;;;;;5027198;28;20049;-75
2023/08/01 02:35:24;;;;;;;12.82;5.88;;;;;;;;;;5031102;28;20456;-72
2023/08/01 02:37:50;;;;;;;13.52;4.07;;;;;;;;;;5015436;28;20025;-73
2023/08/01 02:40:16;;;;;;;13.05;3.72;;;;;;;;;;5025438;28;20064;-72
2023/08/01 02:42:42;;;;;;;12.30;2.83;;;;;;;;;;5025557;28;20041;-73
2023/08/01 02:45:08;;;;;;;9.20;3.42;;;;;;;;;;5026779;28;20042;-74
2023/08/01 02:47:34;;;;;;;8.13;3.05;;;;;;;;;;5021952;28;20410;-74
2023/08/01 02:50:00;;;;;;;7.05;2.70;;;;;;;;;;5024659;28;20836;-73
2023/08/01 02:52:26;;;;;;;9.82;2.67;;;;;;;;;;5040302;28;20364;-73
2023/08/01 02:54:52;;;;;;;10.25;2.35;;;;;;;;;;5024356;28;20026;-73
2023/08/01 02:57:18;;;;;;;6.40;2.15;;;;;;;;;;5028330;28;20499;-73
2023/08/01 02:59:44;;;;;;;10.48;2.33;;;;;;;;;;5025147;28;20037;-72
2023/08/01 03:02:10;;;;;;;12.68;3.55;;;;;;;;;;5023326;28;20034;-72
2023/08/01 03:04:36;;;;;;;8.90;3.13;;;;;;;;;;5022025;28;20036;-73
2023/08/01 03:07:02;;;;;;;14.88;2.80;;;;;;;;;;5020061;28;20126;-73
2023/08/01 03:09:29;;;;;;;17.10;2.58;;;;;;;;;;5020802;28;20042;-75
2023/08/01 03:11:55;;;;;;;10.63;3.30;;;;;;;;;;5022251;28;20018;-74
2023/08/01 03:14:21;;;;;;;8.13;2.40;;;;;;;;;;5022085;28;20042;-75
2023/08/01 03:16:47;;;;;;;10.85;2.00;;;;;;;;;;5021652;28;20037;-74
2023/08/01 03:19:13;;;;;;;12.82;2.92;;;;;;;;;;5020781;28;20030;-73
2023/08/01 03:21:39;;;;;;;12.15;2.55;;;;;;;;;;5011364;28;20048;-73
2023/08/01 03:24:08;;;;;;;13.25;2.00;;;;;;;;;;5024681;28;20029;-73
2023/08/01 03:26:34;;;;;;;12.60;1.73;;;;;;;;;;5022887;28;20061;-73
2023/08/01 03:29:00;;;;;;;10.82;1.90;;;;;;;;;;5014664;28;20379;-74
2023/08/01 03:31:26;;;;;;;7.20;1.95;;;;;;;;;;5021495;28;20032;-72
2023/08/01 03:33:52;;;;;;;7.85;1.85;;;;;;;;;;5025597;28;20042;-72
2023/08/01 03:36:18;;;;;;;9.32;2.00;;;;;;;;;;5028178;28;20045;-73
2023/08/01 03:38:44;;;;;;;5.93;1.48;;;;;;;;;;5026056;28;20025;-73
2023/08/01 03:41:10;;;;;;;6.85;1.88;;;;;;;;;;5021588;28;20029;-73
2023/08/01 03:43:36;;;;;;;7.45;1.60;;;;;;;;;;5022535;28;20118;-72
2023/08/01 03:46:02;;;;;;;6.93;1.80;;;;;;;;;;5024354;28;20462;-72
2023/08/01 03:48:28;;;;;;;8.25;2.65;;;;;;;;;;5021965;28;20493;-71
2023/08/01 03:50:54;;;;;;;8.40;1.58;;;;;;;;;;5022463;28;20025;-72
2023/08/01 03:53:20;;;;;;;10.55;2.92;;;;;;;;;;5020699;28;20084;-72
2023/08/01 03:55:48;;;;;;;10.95;3.97;;;;;;;;;;5021108;28;20429;-72
2023/08/01 03:58:14;;;;;;;9.52;3.17;;;;;;;;;;5027786;28;20017;-74
2023/08/01 04:00:40;;;;;;;9.35;1.70;;;;;;;;;;5026341;28;20434;-73
2023/08/01 04:03:06;;;;;;;7.97;2.05;;;;;;;;;;5025981;28;20025;-73
2023/08/01 04:05:32;;;;;;;7.82;1.25;;;;;;;;;;5026084;28;20021;-73
2023/08/01 04:07:59;;;;;;;6.43;1.10;;;;;;;;;;5022403;28;20044;-73
2023/08/01 04:10:25;;;;;;;5.65;1.52;;;;;;;;;;5026735;28;20030;-73
2023/08/01 04:12:52;;;;;;;9.85;2.00;;;;;;;;;;5024934;28;20636;-73
2023/08/01 04:15:18;;;;;;;6.85;1.60;;;;;;;;;;5015502;28;20013;-73
2023/08/01 04:17:44;;;;;;;5.85;1.27;;;;;;;;;;5026275;28;20366;-73
2023/08/01 04:20:10;;;;;;;4.72;1.85;;;;;;;;;;5024423;28;20025;-73
2023/08/01 04:22:36;;;;;;;6.63;1.80;;;;;;;;;;5020426;28;20075;-72
2023/08/01 04:25:02;;;;;;;4.22;1.30;;;;;;;;;;5025492;28;20365;-73
2023/08/01 04:27:29;;;;;;;5.80;1.30;;;;;;;;;;5025299;28;20467;-73
2023/08/01 04:29:55;;;;;;;7.20;1.17;;;;;;;;;;5025814;28;20120;-74
2023/08/01 04:32:22;;;;;;;5.95;1.10;;;;;;;;;;5024470;28;20049;-73
2023/08/01 04:34:48;;;;;;;8.05;3.35;;;;;;;;;;5025083;28;20479;-73
2023/08/01 04:37:14;;;;;;;3.40;1.15;;;;;;;;;;5022367;28;20537;-73
2023/08/01 04:39:40;;;;;;;4.25;1.65;;;;;;;;;;5027022;28;20037;-73
2023/08/01 04:42:06;;;;;;;12.25;1.50;;;;;;;;;;5025880;28;20045;-74
2023/08/01 04:44:32;;;;;;;4.70;1.70;;;;;;;;;;5026511;28;20037;-74
2023/08/01 04:46:58;;;;;;;3.55;1.33;;;;;;;;;;5026259;28;20499;-73
2023/08/01 04:49:24;;;;;;;6.40;2.10;;;;;;;;;;5022185;28;20029;-73
2023/08/01 04:51:50;;;;;;;6.82;1.92;;;;;;;;;;5025857;28;20034;-73
2023/08/01 04:54:16;;;;;;;8.43;2.75;;;;;;;;;;5020156;28;20506;-73
2023/08/01 04:56:42;;;;;;;7.32;2.08;;;;;;;;;;5024734;28;20475;-74
2023/08/01 04:59:08;;;;;;;5.57;2.50;;;;;;;;;;5027392;28;20047;-74
2023/08/01 05:01:34;;;;;;;9.93;2.58;;;;;;;;;;5025627;28;20107;-73
2023/08/01 05:04:01;;;;;;;8.00;3.00;;;;;;;;;;5020883;28;20061;-74
2023/08/01 05:06:27;;;;;;;10.57;2.60;;;;;;;;;;5024886;28;20056;-74
2023/08/01 05:08:53;;;;;;;6.85;2.75;;;;;;;;;;5025247;28;20034;-74
2023/08/01 05:11:19;;;;;;;6.93;2.88;;;;;;;;;;5024507;28;20494;-74
2023/08/01 05:13:46;;;;;;;11.50;3.08;;;;;;;;;;5027239;28;20029;-74
2023/08/01 05:16:12;;;;;;;12.32;2.85;;;;;;;;;;5025290;28;20037;-73
2023/08/01 05:18:38;;;;;;;6.32;3.40;;;;;;;;;;5026769;28;20045;-73
2023/08/01 05:21:04;;;;;;;9.00;4.82;;;;;;;;;;5025183;28;20530;-73
2023/08/01 05:23:30;;;;;;;7.90;2.95;;;;;;;;;;5021500;28;20061;-73
2023/08/01 05:25:56;;;;;;;4.50;2.65;;;;;;;;;;5029027;28;20049;-73
2023/08/01 05:28:22;;;;;;;7.32;2.50;;;;;;;;;;5027454;28;20552;-73
2023/08/01 05:30:48;;;;;;;5.30;2.78;;;;;;;;;;5024083;28;20025;-74
2023/08/01 05:33:14;;;;;;;6.05;2.63;;;;;;;;;;5024061;28;21282;-73
2023/08/01 05:35:40;;;;;;;12.60;3.33;;;;;;;;;;5024009;28;20589;-73
2023/08/01 05:38:06;;;;;;;10.20;2.67;;;;;;;;;;5024557;28;20117;-74
2023/08/01 05:40:32;;;;;;;10.32;2.72;;;;;;;;;;5025888;28;20088;-73
2023/08/01 05:42:59;;;;;;;7.07;2.60;;;;;;;;;;5022345;28;20499;-73
2023/08/01 05:45:41;;;;;;;;;;;;;;;;;;;;;
2023/08/01 05:48:07;;;;;;;5.57;2.05;;;;;;;;;;5018601;28;20384;-73
2023/08/01 05:50:33;;;;;;;3.78;2.65;;;;;;;;;;5026756;28;20101;-73
2023/08/01 05:53:00;;;;;;;7.20;1.83;;;;;;;;;;5021480;28;20029;-73
2023/08/01 05:55:26;;;;;;;6.40;1.77;;;;;;;;;;5023020;28;20075;-73
2023/08/01 05:57:52;;;;;;;5.93;2.05;;;;;;;;;;5024277;28;20045;-73
2023/08/01 06:00:22;;;;;;;4.20;1.90;;;;;;;;;;5027519;28;20102;-74
2023/08/01 06:02:48;;;;;;;7.05;2.47;;;;;;;;;;5025142;28;20237;-73
2023/08/01 06:05:14;;;;;;;9.73;2.00;;;;;;;;;;5025744;28;20021;-73
2023/08/01 06:07:40;;;;;;;4.57;1.65;;;;;;;;;;5027973;28;20040;-73
2023/08/01 06:10:06;;;;;;;8.10;1.48;;;;;;;;;;5029299;28;20034;-73
2023/08/01 06:12:32;;;;;;;9.38;1.52;;;;;;;;;;5022283;28;20038;-73
2023/08/01 06:14:58;;;;;;;7.93;1.30;;;;;;;;;;5025744;28;20075;-73
2023/08/01 06:17:24;;;;;;;10.70;1.50;;;;;;;;;;5026664;28;20037;-73
2023/08/01 06:19:51;;;;;;;6.65;1.90;;;;;;;;;;5026794;28;20383;-73
2023/08/01 06:22:17;;;;;;;12.57;2.63;;;;;;;;;;5024703;28;20033;-73
2023/08/01 06:24:43;;;;;;;11.50;3.90;;;;;;;;;;5014849;28;20029;-73
2023/08/01 06:27:09;;;;;;;7.05;1.23;;;;;;;;;;5017158;28;20394;-73
2023/08/01 06:29:37;;;;;;;9.23;1.40;;;;;;;;;;5024887;28;20037;-73
2023/08/01 06:32:03;;;;;;;7.75;1.35;;;;;;;;;;5024657;28;20447;-73
2023/08/01 06:34:29;;;;;;;8.73;1.65;;;;;;;;;;5021560;28;20698;-73
2023/08/01 06:36:55;;;;;;;13.15;1.75;;;;;;;;;;5024544;28;20029;-74
2023/08/01 06:39:21;;;;;;;10.85;1.48;;;;;;;;;;5024171;28;20026;-74
2023/08/01 06:41:47;;;;;;;12.15;1.65;;;;;;;;;;5025849;28;20484;-73
2023/08/01 06:44:14;;;;;;;9.00;0.88;;;;;;;;;;5019929;28;20041;-73
2023/08/01 06:46:40;;;;;;;11.25;1.52;;;;;;;;;;5025892;28;20041;-73
2023/08/01 06:49:06;;;;;;;14.55;1.73;;;;;;;;;;5023441;28;20092;-73
2023/08/01 06:51:32;;;;;;;9.10;1.40;;;;;;;;;;5026375;28;20400;-73
2023/08/01 06:53:58;;;;;;;11.27;1.95;;;;;;;;;;5025850;28;20037;-73
2023/08/01 06:56:24;;;;;;;16.48;1.50;;;;;;;;;;5025364;28;20038;-74
2023/08/01 06:58:50;;;;;;;5.78;1.20;;;;;;;;;;5012809;28;20038;-74
2023/08/01 07:01:16;;;;;;;7.93;1.30;;;;;;;;;;5039822;28;20038;-74
2023/08/01 07:03:42;;;;;;;7.40;1.13;;;;;;;;;;5024842;28;20396;-74
2023/08/01 07:06:08;;;;;;;8.65;1.48;;;;;;;;;;5023054;28;20042;-74
2023/08/01 07:08:34;;;;;;;3.90;1.23;;;;;;;;;;5020565;28;20038;-74
2023/08/01 07:11:00;;;;;;;7.00;1.17;;;;;;;;;;5022561;28;20033;-73
2023/08/01 07:13:26;;;;;;;9.13;1.45;;;;;;;;;;5026230;28;20034;-73
2023/08/01 07:15:52;;;;;;;5.93;1.23;;;;;;;;;;5022653;28;20380;-73
2023/08/01 07:18:19;;;;;;;9.02;1.70;;;;;;;;;;5023578;28;20034;-73
2023/08/01 07:20:45;;;;;;;5.38;1.52;;;;;;;;;;5023202;28;20479;-73
2023/08/01 07:23:11;;;;;;;6.40;1.30;;;;;;;;;;5022155;28;20038;-73
2023/08/01 07:25:37;;;;;;;10.73;1.80;;;;;;;;;;5018711;28;20041;-73
2023/08/01 07:28:03;;;;;;;6.40;1.45;;;;;;;;;;5022695;28;20030;-74
2023/08/01 07:30:30;;;;;;;7.22;1.63;;;;;;;;;;5021827;28;20156;-71
2023/08/01 07:32:56;;;;;;;9.20;1.80;;;;;;;;;;5020606;28;21033;-74
2023/08/01 07:35:22;;;;;;;8.40;1.48;;;;;;;;;;5020429;28;20034;-76
2023/08/01 07:37:48;;;;;;;8.63;1.73;;;;;;;;;;5026372;28;20056;-74
2023/08/01 07:40:14;;;;;;;12.27;2.20;;;;;;;;;;5022097;28;20096;-74
2023/08/01 07:42:40;;;;;;;7.88;1.67;;;;;;;;;;5023766;28;20037;-73
2023/08/01 07:45:07;;;;;;;11.55;2.05;;;;;;;;;;5023669;28;20116;-73
2023/08/01 07:47:33;;;;;;;7.15;1.70;;;;;;;;;;5022703;28;20033;-74
2023/08/01 07:49:59;;;;;;;10.95;1.67;;;;;;;;;;5022426;28;20441;-74
2023/08/01 07:52:25;;;;;;;10.48;1.80;;;;;;;;;;5024198;28;20025;-74
2023/08/01 07:54:53;;;;;;;5.15;1.70;;;;;;;;;;5023822;28;20025;-75
2023/08/01 07:57:19;;;;;;;10.05;1.58;;;;;;;;;;5024239;28;20033;-74
2023/08/01 07:59:45;;;;;;;7.78;1.58;;;;;;;;;;5013154;28;20064;-75
2023/08/01 08:02:11;;;;;;;4.97;1.20;;;;;;;;;;5022204;28;20032;-74
2023/08/01 08:04:37;;;;;;;6.32;1.65;;;;;;;;;;5019478;28;20044;-74
2023/08/01 08:07:03;;;;;;;6.60;1.58;;;;;;;;;;5019271;28;20045;-75
2023/08/01 08:09:30;;;;;;;8.32;1.40;;;;;;;;;;5023416;28;20061;-75
2023/08/01 08:11:57;;;;;;;6.03;1.30;;;;;;;;;;5020714;28;20475;-75
2023/08/01 08:14:23;;;;;;;8.35;1.60;;;;;;;;;;5022565;28;20034;-76
2023/08/01 08:16:49;;;;;;;7.68;2.17;;;;;;;;;;5021082;28;20037;-74
2023/08/01 08:19:16;;;;;;;10.23;1.88;;;;;;;;;;5023484;28;20033;-75
2023/08/01 08:21:42;;;;;;;6.15;1.70;;;;;;;;;;5022327;28;20061;-74
2023/08/01 08:24:08;;;;;;;10.02;1.70;;;;;;;;;;5015442;28;20068;-75
2023/08/01 08:26:37;;;;;;;6.43;1.50;;;;;;;;;;5022275;28;20037;-74
2023/08/01 08:29:04;;;;;;;10.90;1.83;;;;;;;;;;5018562;28;20076;-75
2023/08/01 08:31:30;;;;;;;7.50;1.70;;;;;;;;;;5023851;28;20037;-75
2023/08/01 08:33:56;;;;;;;13.25;1.70;;;;;;;;;;5021436;28;20063;-74
2023/08/01 08:36:22;;;;;;;17.20;1.88;;;;;;;;;;5014302;28;20475;-75
2023/08/01 08:38:50;;;;;;;16.55;2.38;;;;;;;;;;5018560;28;20034;-76
2023/08/01 08:41:20;;;;;;;5.60;1.80;;;;;;;;;;5021097;28;20064;-75
2023/08/01 08:43:48;;;;;;;16.10;2.13;;;;;;;;;;5028280;28;20040;-75
2023/08/01 08:46:15;;;;;;;5.25;1.90;;;;;;;;;;5017390;28;20034;-76
2023/08/01 08:48:42;;;;;;;7.80;1.40;;;;;;;;;;5022282;28;20041;-74
2023/08/01 08:51:08;;;;;;;18.92;2.15;;;;;;;;;;5026950;28;20386;-75
2023/08/01 08:53:35;;;;;;;10.60;2.03;;;;;;;;;;5020814;28;20037;-77
2023/08/01 08:56:02;;;;;;;6.95;1.92;;;;;;;;;;5013329;28;20423;-76
2023/08/01 08:58:31;;;;;;;6.15;1.60;;;;;;;;;;5013303;28;20117;-76
2023/08/01 09:00:57;;;;;;;9.32;2.22;;;;;;;;;;5020004;28;20483;-76
2023/08/01 09:03:23;;;;;;;11.90;4.80;;;;;;;;;;5021532;28;20038;-75
2023/08/01 09:05:51;;;;;;;5.85;2.33;;;;;;;;;;5017701;28;20128;-76
2023/08/01 09:08:19;;;;;;;7.78;2.10;;;;;;;;;;5017689;28;20030;-77
2023/08/01 09:10:45;;;;;;;5.68;1.42;;;;;;;;;;5024494;28;20041;-76
2023/08/01 09:13:11;;;;;;;6.55;1.85;;;;;;;;;;5018744;28;20029;-76
2023/08/01 09:15:38;;;;;;;4.05;1.10;;;;;;;;;;5020234;28;20133;-75
2023/08/01 09:18:07;;;;;;;6.47;1.33;;;;;;;;;;5019078;28;20038;-76
2023/08/01 09:20:46;;;;;;;7.90;1.90;;;;;;;;;;5019746;28;20030;-76
2023/08/01 09:23:12;;;;;;;7.50;1.35;;;;;;;;;;5020221;28;20048;-74
2023/08/01 09:25:39;;;;;;;7.30;2.08;;;;;;;;;;5019174;28;20042;-74
2023/08/01 09:28:17;;;;;;;2.95;0.93;;;;;;;;;;5020254;28;20081;-74
2023/08/01 09:30:47;;;;;;;4.88;1.10;;;;;;;;;;5018942;28;20033;-73
2023/08/01 09:33:13;;;;;;;4.18;1.13;;;;;;;;;;5021692;28;20511;-74
2023/08/01 09:35:39;;;;;;;5.97;1.40;;;;;;;;;;5021163;28;20037;-74
2023/08/01 09:38:05;;;;;;;8.68;1.38;;;;;;;;;;5023894;28;20483;-74
2023/08/01 09:40:38;;;;;;;23.13;15.40;;;;;;;;;;5025894;28;20479;-74
2023/08/01 09:43:04;;;;;;;4.90;1.63;;;;;;;;;;5025161;28;20468;-73
2023/08/01 09:45:30;;;;;;;8.30;2.80;;;;;;;;;;5021273;28;20552;-73
2023/08/01 09:47:56;;;;;;;5.63;1.40;;;;;;;;;;5034017;28;20450;-73
2023/08/01 09:50:23;;;;;;;7.60;1.42;;;;;;;;;;5025071;28;20104;-73
2023/08/01 09:52:52;;;;;;;10.25;1.70;;;;;;;;;;5024466;28;20047;-75
2023/08/01 09:55:34;;;;;;;6.25;1.90;;;;;;;;;;5023066;28;20417;-75
2023/08/01 09:58:01;;;;;;;7.80;1.60;;;;;;;;;;5040314;28;20659;-74
2023/08/01 10:00:28;;;;;;;11.50;1.38;;;;;;;;;;5024147;28;20631;-77
2023/08/01 10:02:55;;;;;;;11.60;2.15;;;;;;;;;;5020953;28;20030;-79
2023/08/01 10:05:22;;;;;;;6.78;1.45;;;;;;;;;;5024089;28;20395;-77
2023/08/01 10:07:49;;;;;;;5.97;1.20;;;;;;;;;;5022273;28;20096;-78
2023/08/01 10:10:16;;;;;;;6.75;1.48;;;;;;;;;;5019489;28;20505;-74
2023/08/01 10:12:47;;;;;;;10.63;2.88;;;;;;;;;;5021769;28;20033;-73
2023/08/01 10:15:14;;;;;;;4.55;1.42;;;;;;;;;;5028529;28;20060;-73
2023/08/01 10:17:41;;;;;;;6.70;1.10;;;;;;;;;;5030315;28;20042;-73
2023/08/01 10:20:07;;;;;;;9.30;1.52;;;;;;;;;;5032061;28;20399;-74
2023/08/01 10:22:33;;;;;;;8.52;1.63;;;;;;;;;;5024093;28;20030;-73
2023/08/01 10:25:01;;;;;;;5.72;1.60;;;;;;;;;;5021647;28;20464;-74
2023/08/01 10:27:27;;;;;;;5.93;1.30;;;;;;;;;;5031798;28;20033;-74
2023/08/01 10:30:01;;;;;;;5.40;1.23;;;;;;;;;;5026466;28;20037;-74
2023/08/01 10:32:38;;;;;;;8.60;1.42;;;;;;;;;;5042032;28;20115;-73
2023/08/01 10:35:04;;;;;;;6.95;1.38;;;;;;;;;;5028881;28;20053;-73
2023/08/01 10:37:41;;;;;;;8.45;1.73;;;;;;;;;;5027729;28;20034;-74
2023/08/01 10:40:07;;;;;;;6.57;1.83;;;;;;;;;;5028217;28;20064;-73
2023/08/01 10:42:41;;;;;;;8.85;1.50;;;;;;;;;;5031609;28;20357;-73
2023/08/01 10:45:07;;;;;;;5.88;1.25;;;;;;;;;;5028460;28;20076;-74
2023/08/01 10:47:33;;;;;;;2.85;1.10;;;;;;;;;;5031229;28;20109;-74
2023/08/01 10:49:59;;;;;;;4.72;1.00;;;;;;;;;;5026811;28;20037;-74
2023/08/01 10:52:29;;;;;;;12.32;2.08;;;;;;;;;;5015780;28;20054;-73
2023/08/01 10:55:02;;;;;;;6.07;1.38;;;;;;;;;;5029594;28;20025;-74
2023/08/01 10:57:32;;;;;;;10.60;4.20;;;;;;;;;;5016189;28;20129;-74
2023/08/01 10:59:58;;;;;;;8.75;1.30;;;;;;;;;;5027101;28;20474;-74
2023/08/01 11:02:25;;;;;;;4.93;1.98;;;;;;;;;;5028829;28;20056;-74
2023/08/01 11:05:01;;;;;;;10.35;1.08;;;;;;;;;;5029532;28;20054;-75
2023/08/01 11:07:27;;;;;;;5.88;1.27;;;;;;;;;;5021082;28;20330;-75
2023/08/01 11:10:10;;;;;;;4.93;1.00;;;;;;;;;;5029888;28;20117;-72
2023/08/01 11:12:36;;;;;;;;;;;;;;;;;;5028534;28;20250;-72
2023/08/01 11:15:02;;;;;;;7.75;2.17;;;;;;;;;;5029760;28;19924;-72
2023/08/01 11:17:28;;;;;;;13.82;3.75;;;;;;;;;;5028890;28;20045;-74
2023/08/01 11:20:02;;;;;;;37.05;20.00;;;;;;;;;;5027734;28;20475;-73
2023/08/01 11:22:28;;;;;;;5.97;1.67;;;;;;;;;;5026146;28;20387;-74
2023/08/01 11:24:54;;;;;;;8.13;1.30;;;;;;;;;;5026293;28;20033;-76
2023/08/01 11:27:20;;;;;;;6.57;1.40;;;;;;;;;;5019292;28;20029;-73
2023/08/01 11:29:46;;;;;;;8.48;1.35;;;;;;;;;;5030894;28;20040;-73
2023/08/01 11:32:12;;;;;;;9.70;1.50;;;;;;;;;;5025081;28;20050;-73
2023/08/01 11:34:46;;;;;;;4.30;1.45;;;;;;;;;;5031581;28;20068;-74
2023/08/01 11:37:12;;;;;;;6.85;1.00;;;;;;;;;;5015822;28;20038;-73
2023/08/01 11:39:38;;;;;;;4.82;0.85;;;;;;;;;;5030976;28;20542;-73
2023/08/01 11:42:04;;;;;;;6.18;0.95;;;;;;;;;;5031255;28;20044;-73
2023/08/01 11:44:30;;;;;;;5.93;1.00;;;;;;;;;;5030236;28;20025;-73
2023/08/01 11:46:57;;;;;;;6.65;1.05;;;;;;;;;;5024758;28;20511;-74
2023/08/01 11:49:23;;;;;;;6.28;1.25;;;;;;;;;;5027689;28;20116;-72
2023/08/01 11:51:50;;;;;;;6.47;1.27;;;;;;;;;;5027343;28;20069;-73
2023/08/01 11:54:17;;;;;;;7.32;1.45;;;;;;;;;;5021721;28;20103;-76
2023/08/01 11:56:43;;;;;;;4.95;1.90;;;;;;;;;;5024302;28;20458;-76
2023/08/01 11:59:13;;;;;;;9.98;1.55;;;;;;;;;;5031494;28;20105;-76
2023/08/01 12:01:40;;;;;;;9.32;1.58;;;;;;;;;;5019239;28;20120;-76
2023/08/01 12:04:06;;;;;;;9.45;1.20;;;;;;;;;;5014349;28;20042;-75
2023/08/01 12:06:33;;;;;;;7.57;1.63;;;;;;;;;;5022253;28;20486;-75
2023/08/01 12:09:08;;;;;;;5.93;1.90;;;;;;;;;;5027537;28;20087;-75
2023/08/01 12:11:33;;;;;;;8.85;2.25;;;;;;;;;;5028133;28;20033;-74
2023/08/01 12:14:12;;;;;;;9.85;1.70;;;;;;;;;;5022205;28;20045;-76
2023/08/01 12:16:38;;;;;;;11.68;1.88;;;;;;;;;;5027199;28;20033;-77
2023/08/01 12:19:05;;;;;;;9.40;2.05;;;;;;;;;;5025244;28;20033;-77
2023/08/01 12:21:32;;;;;;;6.05;1.33;;;;;;;;;;5023807;28;20025;-74
2023/08/01 12:23:58;;;;;;;8.35;1.30;;;;;;;;;;5012377;28;20360;-75
2023/08/01 12:26:24;;;;;;;8.27;1.73;;;;;;;;;;5029251;28;20037;-74
2023/08/01 12:28:50;;;;;;;11.18;2.13;;;;;;;;;;5014940;28;20067;-75
2023/08/01 12:31:20;;;;;;;6.30;1.70;;;;;;;;;;5028251;28;20041;-76
2023/08/01 12:33:46;;;;;;;6.70;1.30;;;;;;;;;;5018279;28;20063;-75
2023/08/01 12:36:13;;;;;;;9.18;2.03;;;;;;;;;;5025827;28;20044;-74
2023/08/01 12:38:39;;;;;;;6.95;1.73;;;;;;;;;;5012785;28;20117;-73
2023/08/01 12:41:05;;;;;;;7.03;2.22;;;;;;;;;;5020425;28;20037;-73
2023/08/01 12:43:31;;;;;;;11.50;2.17;;;;;;;;;;5025309;28;20056;-74
2023/08/01 12:45:58;;;;;;;18.52;9.50;;;;;;;;;;5025442;28;20045;-74
2023/08/01 12:48:24;;;;;;;10.20;1.50;;;;;;;;;;5021002;28;20606;-74
2023/08/01 12:50:50;;;;;;;10.75;2.08;;;;;;;;;;5028792;28;20104;-74
2023/08/01 12:53:16;;;;;;;6.80;2.17;;;;;;;;;;5022062;28;20112;-75
2023/08/01 12:55:46;;;;;;;6.25;1.80;;;;;;;;;;5022909;28;20466;-73
2023/08/01 12:58:13;;;;;;;9.95;1.95;;;;;;;;;;5028109;28;20026;-73
2023/08/01 13:00:39;;;;;;;4.07;1.65;;;;;;;;;;5029346;28;20061;-73
2023/08/01 13:03:06;;;;;;;7.45;1.70;;;;;;;;;;5024968;28;20391;-73
2023/08/01 13:05:34;;;;;;;6.72;1.38;;;;;;;;;;5029828;28;20113;-73
2023/08/01 13:08:00;;;;;;;3.65;0.98;;;;;;;;;;5018147;28;20132;-74
2023/08/01 13:10:26;;;;;;;6.97;1.55;;;;;;;;;;5023503;28;20454;-73
2023/08/01 13:12:52;;;;;;;8.35;1.63;;;;;;;;;;5036410;28;20057;-73
2023/08/01 13:15:18;;;;;;;4.75;1.17;;;;;;;;;;5033890;28;20117;-73
2023/08/01 13:17:44;;;;;;;4.68;1.40;;;;;;;;;;5023346;28;20039;-73
2023/08/01 13:20:10;;;;;;;5.85;1.70;;;;;;;;;;5033954;28;20080;-73
2023/08/01 13:22:36;;;;;;;3.85;0.93;;;;;;;;;;5027066;28;20068;-73
2023/08/01 13:25:03;;;;;;;2.67;0.85;;;;;;;;;;5032991;28;20037;-73
2023/08/01 13:27:29;;;;;;;2.80;0.60;;;;;;;;;;5026870;28;20037;-73
2023/08/01 13:29:55;;;;;;;7.15;1.58;;;;;;;;;;5027806;28;20045;-72
2023/08/01 13:32:21;;;;;;;3.33;1.65;;;;;;;;;;5031502;28;20060;-73
2023/08/01 13:34:48;;;;;;;6.10;1.08;;;;;;;;;;5031568;28;20025;-73
2023/08/01 13:37:14;;;;;;;6.35;1.10;;;;;;;;;;5030147;28;20034;-74
2023/08/01 13:39:40;;;;;;;4.05;1.17;;;;;;;;;;5028043;28;20113;-73
2023/08/01 13:42:06;;;;;;;7.50;1.20;;;;;;;;;;5029444;28;20132;-73
2023/08/01 13:44:32;;;;;;;4.95;1.00;;;;;;;;;;5022334;28;20040;-73
2023/08/01 13:46:58;;;;;;;5.68;1.10;;;;;;;;;;5033122;28;20084;-73
2023/08/01 13:49:25;;;;;;;5.45;1.13;;;;;;;;;;5028309;28;20098;-73
2023/08/01 13:51:51;;;;;;;6.80;1.33;;;;;;;;;;5024728;28;20033;-73
2023/08/01 13:54:17;;;;;;;4.05;0.95;;;;;;;;;;5026826;28;20033;-73
2023/08/01 13:56:43;;;;;;;10.65;1.95;;;;;;;;;;5028982;28;20513;-73
2023/08/01 13:59:09;;;;;;;8.30;1.25;;;;;;;;;;5027350;28;20037;-73
2023/08/01 14:01:35;;;;;;;5.60;1.00;;;;;;;;;;5027141;28;20041;-73
2023/08/01 14:04:01;;;;;;;5.93;1.40;;;;;;;;;;5031873;28;20022;-73
2023/08/01 14:06:27;;;;;;;7.00;1.55;;;;;;;;;;5027603;28;20375;-73
2023/08/01 14:08:53;;;;;;;6.15;1.13;;;;;;;;;;5024173;28;20045;-73
2023/08/01 14:11:19;;;;;;;8.70;1.23;;;;;;;;;;5025261;28;20049;-73
2023/08/01 14:13:45;;;;;;;8.70;2.45;;;;;;;;;;5033032;28;20030;-73
2023/08/01 14:16:12;;;;;;;5.57;0.90;;;;;;;;;;5025923;28;20037;-74
2023/08/01 14:18:38;;;;;;;3.78;0.80;;;;;;;;;;5024557;28;20029;-74
2023/08/01 14:21:05;;;;;;;4.45;1.08;;;;;;;;;;5020390;28;20034;-74
2023/08/01 14:23:31;;;;;;;3.72;0.80;;;;;;;;;;5023847;28;20108;-75
2023/08/01 14:25:58;;;;;;;2.95;1.00;;;;;;;;;;5025795;28;20037;-74
2023/08/01 14:28:24;;;;;;;6.13;1.27;;;;;;;;;;5030854;28;20045;-74
2023/08/01 14:30:50;;;;;;;10.07;1.33;;;;;;;;;;5028456;28;20044;-73
2023/08/01 14:33:16;;;;;;;5.28;1.33;;;;;;;;;;5027079;28;20507;-75
2023/08/01 14:35:42;;;;;;;8.15;1.60;;;;;;;;;;5029887;28;20312;-75
2023/08/01 14:38:08;;;;;;;4.72;1.30;;;;;;;;;;5032373;28;20033;-76